Time;durP1;ratioP1;P1;durP2;ratioP2;P2;SDS_P1;SDS_P2;PMS_P1;PMS_P2;Temp;Humidity;BMP_temperature;BMP_pressure;BME280_temperature;BME280_humidity;BME280_pressure;Samples;Min_cycle;Max_cycle;Signal;HPM_P1;HPM_P2
2023/10/05 00:01:04;;;;;;;1.75;0.45;;;14.50;99.90;;;;;;4216417;28;20201;-87
2023/10/05 00:03:06;;;;;;;3.72;0.60;;;14.60;99.90;;;;;;4199893;28;20158;-87
2023/10/05 00:05:07;;;;;;;3.70;0.43;;;14.60;99.90;;;;;;4199519;28;20215;-88
2023/10/05 00:07:26;;;;;;;1.02;0.52;;;14.50;99.90;;;;;;4199580;28;20232;-86
2023/10/05 00:09:27;;;;;;;1.95;0.60;;;14.60;99.90;;;;;;4216500;28;20507;-96
2023/10/05 00:11:30;;;;;;;2.88;0.68;;;14.50;99.90;;;;;;4216362;28;20284;-94
2023/10/05 00:13:32;;;;;;;2.28;0.40;;;14.30;99.90;;;;;;4216545;28;20166;-95
2023/10/05 00:15:36;;;;;;;3.85;0.77;;;14.30;99.90;;;;;;4199802;28;20222;-96
2023/10/05 00:17:38;;;;;;;2.03;0.70;;;14.50;99.90;;;;;;4199532;28;20167;-94
2023/10/05 00:19:39;;;;;;;0.65;0.40;;;14.50;99.90;;;;;;4199535;28;20715;-88
2023/10/05 00:21:51;;;;;;;7.20;0.82;;;14.40;99.90;;;;;;4199528;28;20171;-95
2023/10/05 00:23:57;;;;;;;1.38;0.40;;;14.40;99.90;;;;;;4199391;28;20661;-87
2023/10/05 00:25:58;;;;;;;2.63;0.90;;;14.30;99.90;;;;;;4199471;28;20186;-88
2023/10/05 00:28:05;;;;;;;0.52;0.28;;;14.40;99.90;;;;;;4199225;28;20167;-87
2023/10/05 00:30:06;;;;;;;3.85;1.00;;;14.40;99.90;;;;;;4216035;28;20170;-87
2023/10/05 00:32:22;;;;;;;3.28;1.02;;;14.40;99.90;;;;;;4199196;28;20261;-87
2023/10/05 00:34:24;;;;;;;1.95;0.38;;;14.40;99.90;;;;;;4215216;28;20198;-95
2023/10/05 00:36:26;;;;;;;1.33;0.30;;;14.30;99.90;;;;;;4232965;28;20261;-88
2023/10/05 00:38:29;;;;;;;1.70;0.30;;;14.30;99.90;;;;;;4199249;28;20261;-86
2023/10/05 00:40:37;;;;;;;1.30;0.32;;;14.30;99.90;;;;;;4200588;28;20162;-87
2023/10/05 00:42:38;;;;;;;2.05;0.50;;;14.40;99.90;;;;;;4201724;28;20169;-89
2023/10/05 00:44:41;;;;;;;0.47;0.35;;;14.20;99.90;;;;;;4244251;28;20176;-87
2023/10/05 00:46:48;;;;;;;1.17;0.60;;;14.10;99.90;;;;;;4204412;28;20527;-87
2023/10/05 00:51:14;;;;;;;0.90;0.40;;;14.20;99.90;;;;;;4215997;28;20264;-87
2023/10/05 00:53:16;;;;;;;1.92;1.05;;;14.20;99.90;;;;;;4215711;28;20206;-88
2023/10/05 00:55:17;;;;;;;6.03;1.25;;;14.20;99.90;;;;;;4198613;28;20263;-87
2023/10/05 00:57:21;;;;;;;1.20;0.60;;;14.30;99.90;;;;;;4215267;28;20532;-87
2023/10/05 00:59:22;;;;;;;3.17;0.68;;;14.20;99.90;;;;;;4215612;28;20178;-88
2023/10/05 01:01:27;;;;;;;1.92;0.40;;;14.20;99.90;;;;;;4214922;28;20173;-90
2023/10/05 01:03:47;;;;;;;2.25;0.57;;;14.30;99.90;;;;;;4215580;28;20216;-94
2023/10/05 01:05:55;;;;;;;1.83;0.75;;;14.20;99.90;;;;;;4215145;28;20190;-87
2023/10/05 01:07:57;;;;;;;3.15;1.10;;;14.20;99.90;;;;;;4215703;28;20251;-87
2023/10/05 01:14:16;;;;;;;2.70;0.80;;;14.20;99.90;;;;;;4215460;28;20266;-87
2023/10/05 01:16:19;;;;;;;3.70;0.70;;;14.20;99.90;;;;;;4198791;28;20266;-87
2023/10/05 01:18:25;;;;;;;2.08;1.00;;;14.10;99.90;;;;;;4216491;28;20614;-87
2023/10/05 01:20:28;;;;;;;1.77;0.47;;;14.20;99.90;;;;;;4215599;28;20257;-87
2023/10/05 01:22:33;;;;;;;0.52;0.25;;;14.20;99.90;;;;;;4215362;28;20190;-87
2023/10/05 01:24:36;;;;;;;1.65;0.32;;;14.10;99.90;;;;;;4198407;28;20678;-93
2023/10/05 01:26:37;;;;;;;1.15;0.50;;;14.10;99.90;;;;;;4216322;28;20695;-87
2023/10/05 01:28:43;;;;;;;1.02;0.43;;;14.00;99.90;;;;;;4215173;28;20208;-87
2023/10/05 01:30:44;;;;;;;4.10;0.60;;;14.00;99.90;;;;;;4198264;28;20516;-87
2023/10/05 01:32:47;;;;;;;0.88;0.32;;;13.90;99.90;;;;;;4214764;28;20186;-87
2023/10/05 01:34:51;;;;;;;2.55;1.00;;;14.10;99.90;;;;;;4214732;28;20209;-87
2023/10/05 01:36:53;;;;;;;1.23;0.40;;;14.00;99.90;;;;;;4198204;28;20201;-87
2023/10/05 01:39:00;;;;;;;8.27;1.70;;;13.90;99.90;;;;;;4214998;28;20166;-87
2023/10/05 01:41:02;;;;;;;10.38;0.70;;;14.00;99.90;;;;;;4214698;28;20219;-88
2023/10/05 01:43:04;;;;;;;0.45;0.30;;;13.90;99.90;;;;;;4214731;28;20662;-87
2023/10/05 01:45:06;;;;;;;1.92;0.82;;;13.90;99.90;;;;;;4196673;28;20251;-87
2023/10/05 01:47:07;;;;;;;1.08;0.57;;;13.90;99.90;;;;;;4197825;28;20175;-95
2023/10/05 01:49:08;;;;;;;2.75;0.55;;;13.90;99.90;;;;;;4215561;28;20220;-89
2023/10/05 01:51:15;;;;;;;3.20;0.93;;;13.80;99.90;;;;;;4214915;28;20162;-88
2023/10/05 01:53:17;;;;;;;4.60;1.30;;;14.00;99.90;;;;;;4214856;28;20644;-95
2023/10/05 01:55:18;;;;;;;2.15;0.60;;;14.00;99.90;;;;;;4214659;28;20300;-87
2023/10/05 01:57:20;;;;;;;2.53;0.40;;;14.00;99.90;;;;;;4197883;28;20178;-87
2023/10/05 01:59:22;;;;;;;2.05;0.68;;;14.10;99.90;;;;;;4214813;28;20176;-94
2023/10/05 02:01:28;;;;;;;9.43;1.40;;;14.10;99.90;;;;;;4214257;28;20244;-88
2023/10/05 02:03:29;;;;;;;0.70;0.63;;;14.00;99.90;;;;;;4197706;28;20649;-87
2023/10/05 02:05:30;;;;;;;2.65;0.88;;;14.00;99.90;;;;;;4214382;28;20194;-87
2023/10/05 02:07:31;;;;;;;2.08;0.50;;;14.00;99.90;;;;;;4214540;28;20227;-87
2023/10/05 02:09:32;;;;;;;1.83;0.57;;;14.10;99.90;;;;;;4197973;28;20186;-87
2023/10/05 02:11:33;;;;;;;2.00;0.85;;;14.00;99.90;;;;;;4214434;28;20174;-88
2023/10/05 02:13:35;;;;;;;1.60;0.60;;;14.10;99.90;;;;;;4214500;28;20661;-88
2023/10/05 02:15:39;;;;;;;1.13;0.70;;;14.10;99.90;;;;;;4214334;28;20221;-87
2023/10/05 02:17:45;;;;;;;1.15;0.75;;;14.10;99.90;;;;;;4197793;28;20167;-95
2023/10/05 02:19:46;;;;;;;0.63;0.50;;;14.10;99.90;;;;;;4197741;28;20230;-87
2023/10/05 02:21:51;;;;;;;4.43;0.80;;;14.10;99.90;;;;;;4197850;28;20221;-87
2023/10/05 02:23:57;;;;;;;0.52;0.50;;;14.10;99.90;;;;;;4197758;28;20174;-87
2023/10/05 02:26:08;;;;;;;6.55;0.52;;;14.00;99.90;;;;;;4214218;28;20233;-87
2023/10/05 02:28:09;;;;;;;1.73;0.65;;;14.10;99.90;;;;;;4197712;28;20228;-87
2023/10/05 02:30:11;;;;;;;2.03;0.47;;;14.10;99.90;;;;;;4214180;28;20174;-86
2023/10/05 02:32:21;;;;;;;2.42;1.00;;;14.10;99.90;;;;;;4230831;28;20218;-89
2023/10/05 02:34:22;;;;;;;2.10;0.57;;;14.00;99.90;;;;;;4215170;28;20186;-94
2023/10/05 02:36:30;;;;;;;2.47;0.70;;;14.10;99.90;;;;;;4215223;28;20570;-90
2023/10/05 02:38:32;;;;;;;2.90;0.90;;;14.20;99.90;;;;;;4197392;28;20178;-88
2023/10/05 02:40:39;;;;;;;1.27;0.47;;;14.20;99.90;;;;;;4214246;28;20631;-88
2023/10/05 02:42:43;;;;;;;4.20;0.70;;;14.10;99.90;;;;;;4214167;28;20253;-88
2023/10/05 02:44:45;;;;;;;4.18;0.75;;;14.20;99.90;;;;;;4214237;28;20221;-88
2023/10/05 02:46:47;;;;;;;12.18;1.75;;;14.10;99.90;;;;;;4215277;28;20215;-87
2023/10/05 02:48:49;;;;;;;3.00;0.73;;;14.10;99.90;;;;;;4197510;28;20201;-93
2023/10/05 02:50:52;;;;;;;1.60;0.40;;;14.20;99.90;;;;;;4197629;28;20198;-87
2023/10/05 02:52:52;;;;;;;3.78;0.60;;;14.20;99.90;;;;;;4197466;28;20174;-89
2023/10/05 02:54:53;;;;;;;1.92;0.77;;;14.20;99.90;;;;;;4197083;28;20211;-87
2023/10/05 02:56:54;;;;;;;5.47;1.10;;;14.20;99.90;;;;;;4216319;28;20590;-86
2023/10/05 02:59:02;;;;;;;0.90;0.57;;;14.20;99.90;;;;;;4218194;28;20257;-87
2023/10/05 03:01:13;;;;;;;1.98;0.63;;;14.20;99.90;;;;;;4217994;28;20252;-87
2023/10/05 03:03:14;;;;;;;1.67;0.57;;;14.30;99.90;;;;;;4201508;28;20166;-94
2023/10/05 03:05:15;;;;;;;1.75;0.80;;;14.30;99.90;;;;;;4201083;28;20191;-87
2023/10/05 03:07:18;;;;;;;6.40;0.77;;;14.20;99.90;;;;;;4201604;28;20171;-88
2023/10/05 03:09:21;;;;;;;1.13;0.55;;;14.20;99.90;;;;;;4201674;28;20216;-89
2023/10/05 03:11:22;;;;;;;1.83;1.10;;;14.30;99.90;;;;;;4203233;28;20604;-87
2023/10/05 03:13:23;;;;;;;1.33;0.60;;;14.30;99.90;;;;;;4219156;28;20244;-87
2023/10/05 03:15:27;;;;;;;1.55;0.40;;;14.30;99.90;;;;;;4202227;28;20625;-95
2023/10/05 03:17:31;;;;;;;3.53;0.52;;;14.30;99.90;;;;;;4204988;28;20179;-92
2023/10/05 03:19:36;;;;;;;2.65;0.47;;;14.30;99.90;;;;;;4207017;28;20269;-88
2023/10/05 03:21:37;;;;;;;2.03;0.85;;;14.20;99.90;;;;;;4231716;28;20182;-87
2023/10/05 03:23:40;;;;;;;2.35;0.70;;;14.30;99.90;;;;;;4226123;28;20211;-87
2023/10/05 03:25:43;;;;;;;2.15;0.95;;;14.40;99.90;;;;;;4205309;28;20236;-87
2023/10/05 03:27:46;;;;;;;2.97;0.50;;;14.30;99.90;;;;;;4205827;28;20170;-96
2023/10/05 03:29:47;;;;;;;2.53;0.77;;;14.20;99.90;;;;;;4201625;28;20177;-88
2023/10/05 03:32:13;;;;;;;3.85;0.63;;;14.30;99.90;;;;;;4202161;28;20742;-89
2023/10/05 03:34:14;;;;;;;4.50;0.82;;;14.20;99.90;;;;;;4217875;28;20232;-88
2023/10/05 03:36:15;;;;;;;1.23;0.70;;;14.20;99.90;;;;;;4217880;28;21256;-88
2023/10/05 03:38:19;;;;;;;0.68;0.38;;;14.10;99.90;;;;;;4201822;28;20167;-88
2023/10/05 03:40:25;;;;;;;5.03;0.80;;;14.10;99.90;;;;;;4202350;28;20186;-88
2023/10/05 03:42:31;;;;;;;2.78;1.42;;;14.10;99.90;;;;;;4220063;28;20205;-87
2023/10/05 03:44:33;;;;;;;1.85;0.50;;;14.30;99.90;;;;;;4202866;28;20195;-94
2023/10/05 03:46:35;;;;;;;2.22;0.75;;;14.20;99.90;;;;;;4218328;28;20170;-87
2023/10/05 03:48:38;;;;;;;4.68;0.88;;;14.20;99.90;;;;;;4201152;28;20171;-93
2023/10/05 03:50:39;;;;;;;0.82;0.40;;;14.20;99.90;;;;;;4202088;28;20159;-95
2023/10/05 03:52:40;;;;;;;0.73;0.60;;;14.20;99.90;;;;;;4219677;28;20182;-88
2023/10/05 03:54:44;;;;;;;1.58;0.65;;;14.30;99.90;;;;;;4219167;28;20183;-95
2023/10/05 03:57:04;;;;;;;3.05;0.75;;;14.20;99.90;;;;;;4201261;28;20178;-87
2023/10/05 03:59:05;;;;;;;0.70;0.40;;;14.20;99.90;;;;;;4203042;28;20581;-95
2023/10/05 04:01:10;;;;;;;1.40;0.30;;;14.20;99.90;;;;;;4201681;28;20183;-96
2023/10/05 04:03:13;;;;;;;0.88;0.45;;;14.40;99.90;;;;;;4218421;28;20243;-96
2023/10/05 04:05:18;;;;;;;3.25;0.98;;;14.50;99.90;;;;;;4203218;28;20201;-89
2023/10/05 04:07:21;;;;;;;3.55;0.70;;;14.50;99.90;;;;;;4203006;28;20258;-88
2023/10/05 04:09:21;;;;;;;2.55;0.80;;;14.50;99.90;;;;;;4220080;28;20174;-87
2023/10/05 04:11:23;;;;;;;2.50;0.50;;;14.40;99.90;;;;;;4203581;28;20322;-88
2023/10/05 04:13:26;;;;;;;1.67;0.70;;;14.40;99.90;;;;;;4205611;28;20628;-95
2023/10/05 04:15:27;;;;;;;2.45;0.45;;;14.40;99.90;;;;;;4221436;28;20202;-90
2023/10/05 04:17:28;;;;;;;5.07;0.90;;;14.50;99.90;;;;;;4202409;28;20171;-95
2023/10/05 04:19:28;;;;;;;2.08;0.55;;;14.40;99.90;;;;;;4217571;28;20181;-95
2023/10/05 04:21:32;;;;;;;2.33;0.95;;;14.40;99.90;;;;;;4200717;28;20190;-89
2023/10/05 04:23:35;;;;;;;1.23;0.65;;;14.30;99.90;;;;;;4217247;28;20177;-94
2023/10/05 04:25:36;;;;;;;1.98;0.45;;;14.40;99.90;;;;;;4201682;28;20238;-94
2023/10/05 04:27:38;;;;;;;1.02;0.65;;;14.30;99.90;;;;;;4200485;28;20201;-91
2023/10/05 04:29:39;;;;;;;8.27;1.30;;;14.30;99.90;;;;;;4200252;28;20178;-88
2023/10/05 04:31:40;;;;;;;1.48;0.60;;;14.30;99.90;;;;;;4220957;28;20192;-88
2023/10/05 04:33:43;;;;;;;3.13;0.98;;;14.20;99.90;;;;;;4205018;28;20197;-94
2023/10/05 04:35:45;;;;;;;2.17;0.68;;;14.30;99.90;;;;;;4201885;28;20240;-88
2023/10/05 04:37:47;;;;;;;2.05;0.60;;;14.20;99.90;;;;;;4202607;28;20167;-87
2023/10/05 04:39:48;;;;;;;5.60;0.65;;;14.30;99.90;;;;;;4200292;28;20167;-87
2023/10/05 04:41:55;;;;;;;1.45;0.68;;;14.20;99.90;;;;;;4202258;28;20270;-87
2023/10/05 04:43:56;;;;;;;2.47;0.47;;;14.20;99.90;;;;;;4217065;28;20194;-88
2023/10/05 04:46:00;;;;;;;2.95;0.77;;;14.20;99.90;;;;;;4200873;28;20321;-87
2023/10/05 04:48:03;;;;;;;1.42;0.93;;;14.20;99.90;;;;;;4201526;28;20228;-88
2023/10/05 04:50:06;;;;;;;2.58;0.65;;;14.30;99.90;;;;;;4199819;28;20171;-87
2023/10/05 04:52:06;;;;;;;1.85;0.70;;;14.30;99.90;;;;;;4200941;28;20185;-91
2023/10/05 04:54:10;;;;;;;1.67;0.75;;;14.20;99.90;;;;;;4199824;28;20198;-88
2023/10/05 04:56:14;;;;;;;2.22;0.73;;;14.20;99.90;;;;;;4200653;28;20305;-90
2023/10/05 04:58:23;;;;;;;2.80;0.45;;;14.20;99.90;;;;;;4200789;28;20171;-95
2023/10/05 05:03:01;;;;;;;0.90;0.40;;;14.20;99.90;;;;;;4219629;28;20197;-87
2023/10/05 05:05:21;;;;;;;4.05;0.77;;;14.30;99.90;;;;;;4218227;28;20204;-88
2023/10/05 05:07:22;;;;;;;1.80;0.70;;;14.30;99.90;;;;;;4219635;28;20181;-88
2023/10/05 05:09:35;;;;;;;1.58;0.40;;;14.30;99.90;;;;;;4205531;28;20167;-87
2023/10/05 05:11:36;;;;;;;0.80;0.55;;;14.30;99.90;;;;;;4187154;28;20179;-94
2023/10/05 05:13:38;;;;;;;3.30;0.93;;;14.30;99.90;;;;;;4221936;28;20641;-96
2023/10/05 05:15:39;;;;;;;5.05;0.70;;;14.10;99.90;;;;;;4220272;28;20277;-96
2023/10/05 05:17:40;;;;;;;3.75;0.60;;;14.10;99.90;;;;;;4220358;28;20222;-93
2023/10/05 05:19:41;;;;;;;2.17;0.73;;;14.20;99.90;;;;;;4201818;28;20179;-92
2023/10/05 05:21:43;;;;;;;6.05;0.90;;;14.20;99.90;;;;;;4221563;28;20177;-91
2023/10/05 05:23:47;;;;;;;2.95;0.88;;;14.20;99.90;;;;;;4205113;28;20575;-88
2023/10/05 05:25:51;;;;;;;3.50;1.02;;;14.20;99.90;;;;;;4220374;28;20202;-88
2023/10/05 05:27:55;;;;;;;1.42;0.55;;;14.10;99.90;;;;;;4202486;28;20649;-93
2023/10/05 05:29:56;;;;;;;1.35;0.60;;;14.10;99.90;;;;;;4204969;28;20163;-95
2023/10/05 05:31:56;;;;;;;1.67;0.60;;;14.10;99.90;;;;;;4222094;28;20208;-94
2023/10/05 05:33:59;;;;;;;1.15;0.60;;;14.20;99.90;;;;;;4221338;28;20162;-90
2023/10/05 05:36:06;;;;;;;0.90;0.60;;;14.20;99.90;;;;;;4200970;28;20206;-89
2023/10/05 05:38:10;;;;;;;6.40;0.90;;;14.20;99.90;;;;;;4218026;28;20185;-89
2023/10/05 05:40:14;;;;;;;3.13;0.90;;;14.20;99.90;;;;;;4203319;28;20178;-96
2023/10/05 05:42:15;;;;;;;2.67;1.33;;;14.30;99.90;;;;;;4202243;28;20174;-88
2023/10/05 05:44:20;;;;;;;1.23;0.80;;;14.30;99.90;;;;;;4202926;28;20175;-88
2023/10/05 05:46:22;;;;;;;1.00;0.40;;;14.20;99.90;;;;;;4219146;28;20166;-88
2023/10/05 05:48:22;;;;;;;8.80;0.82;;;14.20;99.90;;;;;;4202462;28;20183;-90
2023/10/05 05:50:23;;;;;;;9.55;1.10;;;14.10;99.90;;;;;;4202414;28;20169;-87
2023/10/05 05:52:28;;;;;;;3.40;1.08;;;14.20;99.90;;;;;;4219173;28;20170;-88
2023/10/05 05:54:31;;;;;;;4.57;1.10;;;14.10;99.90;;;;;;4222576;28;20211;-96
2023/10/05 05:56:32;;;;;;;3.10;0.82;;;14.00;99.90;;;;;;4216855;28;20221;-88
2023/10/05 05:58:33;;;;;;;3.85;1.13;;;14.00;99.90;;;;;;4202142;28;20200;-88
2023/10/05 06:00:33;;;;;;;2.60;0.50;;;14.10;99.90;;;;;;4204148;28;20198;-87
2023/10/05 06:02:34;;;;;;;5.45;0.77;;;14.10;99.90;;;;;;4210950;28;20163;-88
2023/10/05 06:04:35;;;;;;;2.60;0.70;;;14.00;99.90;;;;;;4227039;28;20236;-87
2023/10/05 06:06:37;;;;;;;1.65;0.70;;;13.90;99.90;;;;;;4207562;28;20167;-87
2023/10/05 06:08:40;;;;;;;1.67;0.70;;;13.90;99.90;;;;;;4220599;28;20178;-87
2023/10/05 06:10:43;;;;;;;4.00;0.80;;;14.00;99.90;;;;;;4217896;28;20261;-87
2023/10/05 06:12:48;;;;;;;1.98;0.77;;;14.10;99.90;;;;;;4197921;28;20185;-88
2023/10/05 06:14:49;;;;;;;6.22;0.93;;;14.00;99.90;;;;;;4218139;28;20227;-89
2023/10/05 06:16:52;;;;;;;8.52;1.25;;;14.00;99.90;;;;;;4219072;28;20181;-95
2023/10/05 06:18:54;;;;;;;3.25;0.50;;;14.00;99.90;;;;;;4218179;28;20166;-88
2023/10/05 06:20:55;;;;;;;4.65;1.10;;;14.00;99.90;;;;;;4198313;28;20186;-93
2023/10/05 06:22:56;;;;;;;5.07;0.90;;;13.90;99.90;;;;;;4205185;28;20181;-87
2023/10/05 06:24:58;;;;;;;3.47;0.98;;;14.00;99.90;;;;;;4199113;28;20280;-88
2023/10/05 06:27:00;;;;;;;0.65;0.43;;;14.10;99.90;;;;;;4199704;28;20163;-88
2023/10/05 06:29:01;;;;;;;2.72;1.20;;;14.10;99.90;;;;;;4199446;28;20228;-88
2023/10/05 06:31:01;;;;;;;5.55;0.93;;;14.10;99.90;;;;;;4199933;28;20175;-90
2023/10/05 06:33:02;;;;;;;3.70;0.95;;;14.10;99.90;;;;;;4217817;28;20273;-88
2023/10/05 06:35:08;;;;;;;8.73;1.42;;;14.10;99.90;;;;;;4201078;28;20289;-88
2023/10/05 06:37:10;;;;;;;4.10;1.15;;;14.10;99.90;;;;;;4220122;28;20182;-88
2023/10/05 06:39:14;;;;;;;2.22;1.23;;;14.10;99.90;;;;;;4200361;28;20183;-87
2023/10/05 06:41:22;;;;;;;7.78;1.27;;;14.10;99.90;;;;;;4218511;28;20178;-88
2023/10/05 06:43:23;;;;;;;6.15;1.42;;;14.20;99.90;;;;;;4217670;28;20169;-89
2023/10/05 06:45:24;;;;;;;5.57;1.02;;;14.20;99.90;;;;;;4200297;28;20232;-88
2023/10/05 06:47:37;;;;;;;4.45;1.23;;;14.20;99.90;;;;;;4215531;28;20194;-90
2023/10/05 06:49:38;;;;;;;8.10;0.98;;;14.30;99.90;;;;;;4200999;28;20175;-88
2023/10/05 06:51:43;;;;;;;5.32;0.93;;;14.50;99.90;;;;;;4219715;28;20189;-91
2023/10/05 06:53:44;;;;;;;3.60;0.93;;;14.60;99.90;;;;;;4220389;28;20174;-88
2023/10/05 06:55:45;;;;;;;4.65;1.05;;;14.60;99.90;;;;;;4218560;28;20212;-87
2023/10/05 06:57:46;;;;;;;5.85;1.17;;;14.60;99.90;;;;;;4203458;28;20250;-88
2023/10/05 06:59:47;;;;;;;4.53;1.65;;;14.60;99.90;;;;;;4200041;28;20241;-92
2023/10/05 07:01:48;;;;;;;6.63;1.67;;;14.70;99.90;;;;;;4203833;28;20177;-88
2023/10/05 07:03:52;;;;;;;1.08;0.52;;;14.70;99.90;;;;;;4200572;28;20167;-90
2023/10/05 07:05:54;;;;;;;1.33;0.75;;;14.50;99.90;;;;;;4217655;28;20335;-88
2023/10/05 07:07:55;;;;;;;5.95;1.02;;;14.60;99.90;;;;;;4218262;28;20287;-93
2023/10/05 07:09:57;;;;;;;4.78;1.20;;;14.70;99.90;;;;;;4215904;28;20173;-95
2023/10/05 07:11:58;;;;;;;5.00;1.17;;;14.80;99.90;;;;;;4216481;28;20206;-92
2023/10/05 07:14:00;;;;;;;3.50;0.85;;;14.60;99.90;;;;;;4219322;28;20178;-90
2023/10/05 07:16:01;;;;;;;1.83;0.60;;;14.70;99.90;;;;;;4199546;28;20203;-87
2023/10/05 07:18:03;;;;;;;4.20;1.17;;;14.70;99.90;;;;;;4215153;28;20268;-89
2023/10/05 07:20:04;;;;;;;4.13;1.10;;;14.80;99.90;;;;;;4200666;28;20263;-96
2023/10/05 07:22:05;;;;;;;5.22;1.45;;;14.80;99.90;;;;;;4199291;28;20232;-88
2023/10/05 07:24:07;;;;;;;4.60;1.65;;;14.80;99.90;;;;;;4216164;28;20658;-87
2023/10/05 07:26:11;;;;;;;4.10;0.77;;;14.80;99.90;;;;;;4197979;28;20285;-88
2023/10/05 07:28:15;;;;;;;9.60;1.02;;;14.80;99.90;;;;;;4217340;28;20664;-87
2023/10/05 07:30:16;;;;;;;2.42;0.93;;;14.90;99.90;;;;;;4200267;28;20256;-87
2023/10/05 07:32:17;;;;;;;3.10;0.90;;;15.00;99.90;;;;;;4200879;28;20177;-96
2023/10/05 07:34:18;;;;;;;1.73;0.75;;;15.00;99.90;;;;;;4216383;28;20180;-87
2023/10/05 07:36:19;;;;;;;3.63;1.20;;;15.10;99.90;;;;;;4200332;28;20230;-88
2023/10/05 07:38:20;;;;;;;6.20;0.88;;;15.00;99.90;;;;;;4215851;28;20540;-87
2023/10/05 07:40:21;;;;;;;1.42;0.65;;;15.10;99.90;;;;;;4199740;28;20174;-95
2023/10/05 07:42:22;;;;;;;2.13;0.82;;;15.00;99.90;;;;;;4214760;28;20177;-88
2023/10/05 07:44:23;;;;;;;7.38;1.13;;;15.10;99.90;;;;;;4199863;28;20218;-87
2023/10/05 07:46:24;;;;;;;4.38;1.17;;;14.90;99.90;;;;;;4201033;28;20186;-87
2023/10/05 07:48:26;;;;;;;4.10;1.00;;;14.90;99.90;;;;;;4203132;28;20163;-87
2023/10/05 07:50:27;;;;;;;5.25;1.08;;;14.80;99.90;;;;;;4202050;28;20182;-87
2023/10/05 07:52:28;;;;;;;4.57;0.95;;;14.80;99.90;;;;;;4202297;28;20724;-95
2023/10/05 07:54:34;;;;;;;4.00;0.93;;;14.90;99.90;;;;;;4201129;28;20234;-94
2023/10/05 07:56:35;;;;;;;2.33;0.60;;;14.90;99.90;;;;;;4217293;28;20280;-88
2023/10/05 07:58:36;;;;;;;2.90;1.08;;;15.00;99.90;;;;;;4201086;28;20233;-88
2023/10/05 08:00:37;;;;;;;5.88;1.08;;;14.90;99.90;;;;;;4217595;28;20168;-87
2023/10/05 08:02:39;;;;;;;2.50;0.60;;;14.90;99.90;;;;;;4200310;28;20178;-87
2023/10/05 08:04:41;;;;;;;5.32;0.77;;;14.90;99.90;;;;;;4199923;28;20206;-95
2023/10/05 08:06:44;;;;;;;8.65;1.10;;;14.90;99.90;;;;;;4218911;28;20174;-95
2023/10/05 08:08:45;;;;;;;4.70;1.20;;;14.90;99.90;;;;;;4220481;28;20166;-87
2023/10/05 08:10:46;;;;;;;1.50;0.65;;;15.10;99.90;;;;;;4202076;28;20181;-94
2023/10/05 08:12:50;;;;;;;4.10;1.08;;;15.10;99.90;;;;;;4219600;28;20163;-95
2023/10/05 08:14:51;;;;;;;8.82;1.38;;;15.20;99.90;;;;;;4219207;28;20272;-88
2023/10/05 08:16:55;;;;;;;2.72;0.90;;;15.20;99.90;;;;;;4218088;28;20199;-95
2023/10/05 08:19:05;;;;;;;3.55;1.13;;;15.30;99.90;;;;;;4217665;28;20178;-88
2023/10/05 08:21:05;;;;;;;4.72;0.73;;;15.40;99.90;;;;;;4236479;28;20173;-88
2023/10/05 08:23:06;;;;;;;4.53;1.05;;;15.50;99.90;;;;;;4201627;28;20178;-87
2023/10/05 08:25:11;;;;;;;5.53;0.77;;;15.50;99.90;;;;;;4218869;28;20707;-95
2023/10/05 08:27:14;;;;;;;4.03;0.85;;;15.40;99.90;;;;;;4204238;28;20170;-95
2023/10/05 08:29:17;;;;;;;1.77;0.80;;;15.30;99.90;;;;;;4218087;28;20173;-87
2023/10/05 08:31:23;;;;;;;5.07;1.05;;;15.30;99.90;;;;;;4218523;28;20177;-94
2023/10/05 08:33:26;;;;;;;4.57;0.65;;;15.30;99.90;;;;;;4204015;28;20158;-95
2023/10/05 08:35:27;;;;;;;2.30;0.85;;;15.30;99.90;;;;;;4201455;28;20214;-87
2023/10/05 08:37:28;;;;;;;4.07;0.80;;;15.40;99.90;;;;;;4201888;28;20167;-87
2023/10/05 08:39:34;;;;;;;5.70;0.82;;;15.10;99.90;;;;;;4220055;28;20558;-87
2023/10/05 08:41:41;;;;;;;5.15;1.15;;;15.20;99.90;;;;;;4228728;28;20174;-89
2023/10/05 08:43:42;;;;;;;1.58;0.52;;;15.40;99.90;;;;;;4208185;28;20273;-94
2023/10/05 08:45:47;;;;;;;1.55;0.80;;;15.60;99.90;;;;;;4201371;28;20621;-95
2023/10/05 08:47:53;;;;;;;5.65;1.30;;;15.50;99.90;;;;;;4218659;28;20178;-88
2023/10/05 08:49:54;;;;;;;5.78;0.60;;;15.70;99.90;;;;;;4201210;28;20233;-88
2023/10/05 08:51:57;;;;;;;2.13;0.85;;;15.70;99.90;;;;;;4217424;28;20174;-88
2023/10/05 08:54:02;;;;;;;4.68;0.98;;;15.80;99.90;;;;;;4202831;28;20226;-87
2023/10/05 08:56:03;;;;;;;3.40;1.05;;;15.90;99.90;;;;;;4202991;28;20787;-88
2023/10/05 08:58:04;;;;;;;1.35;0.65;;;15.90;99.90;;;;;;4218981;28;20162;-94
2023/10/05 09:00:06;;;;;;;2.67;0.95;;;15.90;99.90;;;;;;4201488;28;20199;-90
2023/10/05 09:02:08;;;;;;;6.00;0.93;;;16.00;99.90;;;;;;4217991;28;20248;-87
2023/10/05 09:06:20;;;;;;;2.65;1.13;;;16.40;99.90;;;;;;4219226;28;20166;-95
2023/10/05 09:08:21;;;;;;;4.13;0.90;;;16.30;99.90;;;;;;4200919;28;20177;-95
2023/10/05 09:10:27;;;;;;;2.38;0.82;;;16.40;99.90;;;;;;4199703;28;20163;-95
2023/10/05 09:12:37;;;;;;;3.00;1.15;;;16.30;99.90;;;;;;4218786;28;20178;-87
2023/10/05 09:14:38;;;;;;;3.05;1.35;;;16.20;99.90;;;;;;4204366;28;20186;-87
2023/10/05 09:16:43;;;;;;;3.17;1.00;;;16.10;99.90;;;;;;4217166;28;20220;-89
2023/10/05 09:18:51;;;;;;;2.85;0.70;;;16.00;99.90;;;;;;4197787;28;20255;-88
2023/10/05 09:20:53;;;;;;;5.75;1.27;;;15.90;99.90;;;;;;4197162;28;20174;-91
2023/10/05 09:22:55;;;;;;;7.82;1.88;;;16.00;99.90;;;;;;4215263;28;20170;-88
2023/10/05 09:24:58;;;;;;;1.95;0.90;;;16.00;99.90;;;;;;4198639;28;20209;-87
2023/10/05 09:27:12;;;;;;;1.73;0.60;;;16.10;99.90;;;;;;4198358;28;20170;-88
2023/10/05 09:29:22;;;;;;;4.20;0.52;;;16.10;99.90;;;;;;4198234;28;20174;-87
2023/10/05 09:31:36;;;;;;;3.90;0.77;;;16.30;99.90;;;;;;4198153;28;20174;-88
2023/10/05 09:33:49;;;;;;;5.43;0.90;;;16.20;99.90;;;;;;4198417;28;20174;-86
2023/10/05 09:35:49;;;;;;;1.75;0.70;;;16.20;99.90;;;;;;4198328;28;20206;-88
2023/10/05 09:37:52;;;;;;;6.43;1.60;;;16.30;99.90;;;;;;4198555;28;20175;-94
2023/10/05 09:39:59;;;;;;;6.55;1.02;;;16.30;99.90;;;;;;4198603;28;20665;-90
2023/10/05 09:42:01;;;;;;;6.55;1.25;;;16.30;99.90;;;;;;4198589;28;20191;-94
2023/10/05 09:44:07;;;;;;;4.28;1.08;;;16.30;99.90;;;;;;4232193;28;20177;-88
2023/10/05 09:46:10;;;;;;;3.22;1.08;;;16.50;99.90;;;;;;4215051;28;20284;-94
2023/10/05 09:48:13;;;;;;;1.73;0.60;;;16.60;99.90;;;;;;4197986;28;20171;-90
2023/10/05 09:50:15;;;;;;;2.58;0.68;;;16.70;99.90;;;;;;4218953;28;20623;-94
2023/10/05 09:52:19;;;;;;;4.65;0.80;;;16.90;99.90;;;;;;4204690;28;20237;-90
2023/10/05 09:54:22;;;;;;;4.15;0.68;;;17.00;99.90;;;;;;4206356;28;20274;-90
2023/10/05 09:56:25;;;;;;;3.85;1.30;;;17.00;99.90;;;;;;4202243;28;20578;-89
2023/10/05 09:58:28;;;;;;;2.08;0.80;;;17.10;99.90;;;;;;4200151;28;20198;-89
2023/10/05 10:02:40;;;;;;;3.85;1.13;;;17.20;99.90;;;;;;4218039;28;20725;-91
2023/10/05 10:04:43;;;;;;;5.32;1.40;;;17.30;99.90;;;;;;4218222;28;20177;-89
2023/10/05 10:06:53;;;;;;;5.35;0.85;;;17.20;99.90;;;;;;4199346;28;20554;-90
2023/10/05 10:09:08;;;;;;;6.20;1.27;;;17.10;99.90;;;;;;4206023;28;20171;-90
2023/10/05 10:11:20;;;;;;;3.00;0.73;;;17.00;99.90;;;;;;4227183;28;20170;-90
2023/10/05 10:13:39;;;;;;;3.40;1.58;;;17.00;99.90;;;;;;4219282;28;20181;-91
2023/10/05 10:15:46;;;;;;;3.80;1.20;;;17.20;99.90;;;;;;4221296;28;20209;-90
2023/10/05 10:18:06;;;;;;;8.25;1.30;;;17.30;99.90;;;;;;4204143;28;20190;-89
2023/10/05 10:20:34;;;;;;;4.95;1.05;;;17.20;99.90;;;;;;4218837;28;20272;-92
2023/10/05 10:22:55;;;;;;;5.18;1.13;;;17.50;99.90;;;;;;4216963;28;20312;-89
2023/10/05 10:25:10;;;;;;;2.22;0.57;;;17.60;99.90;;;;;;4219442;28;20578;-89
2023/10/05 10:27:27;;;;;;;7.32;0.77;;;18.00;99.90;;;;;;4219631;28;20173;-90
2023/10/05 10:29:39;;;;;;;4.93;1.35;;;18.30;99.90;;;;;;4218532;28;20239;-90
2023/10/05 10:31:43;;;;;;;4.72;1.00;;;18.40;99.90;;;;;;4205859;28;20174;-90
2023/10/05 10:33:54;;;;;;;3.55;1.00;;;18.70;99.90;;;;;;4209447;28;20171;-89
2023/10/05 10:35:57;;;;;;;4.57;0.77;;;18.70;99.90;;;;;;4183196;28;20211;-89
2023/10/05 10:38:05;;;;;;;3.17;0.90;;;18.90;99.90;;;;;;4182525;28;20175;-90
2023/10/05 10:42:19;;;;;;;3.30;0.98;;;18.90;99.90;;;;;;4197445;28;20178;-88
2023/10/05 10:44:25;;;;;;;4.30;1.08;;;18.80;99.90;;;;;;4183857;28;20650;-91
2023/10/05 10:46:30;;;;;;;2.00;1.08;;;18.40;99.90;;;;;;4184448;28;20172;-89
2023/10/05 10:48:36;;;;;;;3.28;0.90;;;18.50;99.90;;;;;;4186200;28;20172;-90
2023/10/05 10:50:37;;;;;;;5.03;1.52;;;18.50;99.90;;;;;;4184381;28;20275;-89
2023/10/05 10:52:39;;;;;;;2.47;0.80;;;18.60;99.90;;;;;;4200561;28;20182;-89
2023/10/05 10:54:45;;;;;;;1.42;0.52;;;18.70;99.90;;;;;;4187600;28;20199;-93
2023/10/05 10:56:55;;;;;;;6.15;1.20;;;18.60;99.90;;;;;;4199826;28;20222;-89
2023/10/05 10:59:26;;;;;;;2.67;0.98;;;18.80;99.90;;;;;;4200447;28;20178;-90
2023/10/05 11:01:29;;;;;;;5.35;0.98;;;19.00;99.90;;;;;;4204555;28;20186;-92